Time;durP1;ratioP1;P1;durP2;ratioP2;P2;SDS_P1;SDS_P2;PMS_P1;PMS_P2;Temp;Humidity;BMP_temperature;BMP_pressure;BME280_temperature;BME280_humidity;BME280_pressure;Samples;Min_cycle;Max_cycle;Signal;HPM_P1;HPM_P2
2022/09/21 00:01:26;;;;;;;1.05;0.95;;;;;;;9.52;100.00;98799.28;1723086;81;21612;-73
2022/09/21 00:03:54;;;;;;;0.93;0.85;;;;;;;9.53;100.00;98802.27;1718833;82;20962;-74
2022/09/21 00:06:21;;;;;;;1.62;0.98;;;;;;;9.55;100.00;98805.63;1707466;82;21102;-74
2022/09/21 00:08:48;;;;;;;1.15;0.68;;;;;;;9.56;100.00;98805.56;1723536;82;21237;-74
2022/09/21 00:11:21;;;;;;;12.63;8.90;;;;;;;9.58;100.00;98806.33;1716507;82;20992;-74
2022/09/21 00:13:55;;;;;;;1.70;1.40;;;;;;;9.58;100.00;98807.62;1691062;82;21009;-74
2022/09/21 00:16:22;;;;;;;1.50;1.05;;;;;;;9.58;100.00;98806.33;1736236;82;21003;-74
2022/09/21 00:42:36;;;;;;;0.80;0.80;;;;;;;9.43;100.00;98810.09;1725397;82;20964;-74
2022/09/21 00:45:04;;;;;;;0.75;0.75;;;;;;;9.43;100.00;98809.63;1736126;81;21012;-74
2022/09/21 00:47:38;;;;;;;0.78;0.78;;;;;;;9.45;100.00;98806.97;1715855;82;21101;-73
2022/09/21 03:11:22;;;;;;;0.30;0.30;;;;;;;8.97;100.00;98852.44;1724207;81;21012;-74
2022/09/21 03:13:49;;;;;;;0.30;0.25;;;;;;;8.95;100.00;98846.48;1730267;81;20944;-74
2022/09/21 03:16:16;;;;;;;0.42;0.30;;;;;;;8.94;100.00;98852.12;1715607;82;20954;-74
2022/09/21 03:18:43;;;;;;;2.17;0.40;;;;;;;8.95;100.00;98858.99;1726751;82;20999;-73
2022/09/21 03:21:11;;;;;;;0.40;0.37;;;;;;;8.95;100.00;98855.10;1723286;82;21132;-74
2022/09/21 03:23:39;;;;;;;0.95;0.40;;;;;;;8.94;100.00;98853.88;1740653;82;21059;-74
2022/09/21 03:26:05;;;;;;;0.35;0.35;;;;;;;8.94;100.00;98859.05;1742064;82;21004;-75
2022/09/21 03:28:32;;;;;;;0.40;0.40;;;;;;;8.93;100.00;98854.78;1729168;82;21517;-75
2022/09/21 03:30:58;;;;;;;2.00;0.40;;;;;;;8.90;100.00;98862.23;1739136;82;21424;-75
2022/09/21 03:33:25;;;;;;;0.62;0.40;;;;;;;8.88;100.00;98862.75;1746529;82;21129;-75
2022/09/21 03:35:51;;;;;;;0.90;0.50;;;;;;;8.85;100.00;98864.18;1742212;82;21031;-75
2022/09/21 03:38:20;;;;;;;0.40;0.40;;;;;;;8.85;100.00;98866.78;1748966;82;21598;-75
2022/09/21 03:40:47;;;;;;;0.40;0.40;;;;;;;8.84;100.00;98868.14;1739966;81;21030;-74
2022/09/21 03:43:17;;;;;;;0.40;0.40;;;;;;;8.84;100.00;98862.50;1732160;82;20996;-75
2022/09/21 03:45:59;;;;;;;0.40;0.40;;;;;;;8.84;100.00;98862.50;1719084;82;21186;-75
2022/09/21 03:48:25;;;;;;;0.50;0.50;;;;;;;8.86;100.00;98865.87;1727953;81;21483;-74
2022/09/21 03:50:52;;;;;;;1.45;0.80;;;;;;;8.89;100.00;98868.78;1723959;82;21079;-73
2022/09/21 03:53:18;;;;;;;0.65;0.65;;;;;;;8.90;100.00;98867.42;1734559;81;21109;-79
2022/09/21 03:55:45;;;;;;;1.02;0.80;;;;;;;8.91;100.00;98869.56;1733456;81;21000;-74
2022/09/21 03:58:11;;;;;;;0.90;0.80;;;;;;;8.93;100.00;98871.64;1706173;82;21756;-73
2022/09/21 04:00:38;;;;;;;0.60;0.60;;;;;;;8.96;100.00;98875.39;1724138;82;20929;-75
2022/09/21 04:03:05;;;;;;;0.68;0.60;;;;;;;8.96;100.00;98873.64;1734709;81;21010;-74
2022/09/21 04:05:31;;;;;;;0.65;0.65;;;;;;;8.96;100.00;98875.39;1735713;81;21018;-73
2022/09/21 04:08:00;;;;;;;1.20;0.80;;;;;;;8.96;100.00;98878.83;1692822;83;20998;-74
2022/09/21 04:10:31;;;;;;;0.98;0.57;;;;;;;8.98;100.00;98886.55;1734148;81;21175;-73
2022/09/21 04:13:05;;;;;;;1.62;0.90;;;;;;;9.01;100.00;98881.20;1736803;81;20984;-75
2022/09/21 04:15:28;;;;;;;1.00;0.90;;;;;;;9.01;100.00;98882.95;1722580;82;25808;-72
2022/09/21 04:17:56;;;;;;;0.80;0.75;;;;;;;9.02;100.00;98889.37;1724290;81;21569;-73
2022/09/21 04:20:22;;;;;;;0.60;0.60;;;;;;;9.04;100.00;98884.95;1743093;81;21466;-74
2022/09/21 04:22:50;;;;;;;0.68;0.68;;;;;;;9.08;100.00;98890.41;1712019;81;21153;-74
2022/09/21 04:25:17;;;;;;;1.05;0.95;;;;;;;9.09;100.00;98884.30;1718782;81;21088;-74
2022/09/21 04:27:43;;;;;;;1.20;1.10;;;;;;;9.11;100.00;98885.53;1719641;81;21056;-74
2022/09/21 04:30:12;;;;;;;1.55;1.30;;;;;;;9.11;100.00;98888.97;1742099;81;21045;-73
2022/09/21 04:32:39;;;;;;;1.22;0.93;;;;;;;9.12;100.00;98890.66;1729009;82;21002;-73
2022/09/21 04:35:06;;;;;;;1.85;0.70;;;;;;;9.14;100.00;98890.59;1733848;81;21153;-73
2022/09/21 04:37:33;;;;;;;1.20;1.10;;;;;;;9.15;100.00;98890.53;1738454;82;20996;-74
2022/09/21 04:40:00;;;;;;;1.27;1.17;;;;;;;9.18;100.00;98896.04;1726967;81;21009;-73
2022/09/21 04:42:28;;;;;;;2.75;1.92;;;;;;;9.19;100.00;98895.13;1715165;81;21103;-73
2022/09/21 04:44:55;;;;;;;1.35;1.25;;;;;;;9.21;100.00;98906.25;1706817;82;21194;-73
2022/09/21 04:47:24;;;;;;;1.20;1.10;;;;;;;9.22;100.00;98907.48;1722943;82;21120;-73
2022/09/21 04:49:52;;;;;;;1.27;1.12;;;;;;;9.23;100.00;98907.88;1727197;81;20940;-74
2022/09/21 04:52:18;;;;;;;1.40;1.30;;;;;;;9.26;100.00;98910.33;1734752;81;21080;-74
2022/09/21 04:54:46;;;;;;;1.72;1.50;;;;;;;9.28;100.00;98908.97;1737600;81;21024;-73
2022/09/21 04:57:13;;;;;;;1.40;1.20;;;;;;;9.28;100.00;98911.56;1739547;81;21017;-73
2022/09/21 04:59:40;;;;;;;2.25;1.77;;;;;;;9.29;100.00;98915.39;1725955;82;21109;-73
2022/09/21 05:02:08;;;;;;;2.52;1.70;;;;;;;9.30;100.00;98916.23;1704869;82;20941;-74
2022/09/21 05:04:36;;;;;;;2.95;1.62;;;;;;;9.32;100.00;98913.95;1729375;81;21001;-74
2022/09/21 05:07:02;;;;;;;1.60;1.50;;;;;;;9.36;100.00;98917.27;1749085;80;21055;-74
2022/09/21 05:12:18;;;;;;;2.27;1.60;;;;;;;9.43;100.00;98917.80;1730410;82;21085;-74
2022/09/21 05:14:45;;;;;;;1.50;1.40;;;;;;;9.44;100.00;98919.03;1713235;82;21495;-73
2022/09/21 05:17:13;;;;;;;1.77;1.67;;;;;;;9.44;100.00;98924.69;1724375;81;21092;-73
2022/09/21 05:19:48;;;;;;;1.67;1.57;;;;;;;9.43;100.00;98925.59;1728343;82;21523;-73
2022/09/21 05:22:15;;;;;;;1.50;1.40;;;;;;;9.46;100.00;98921.11;1686151;83;21109;-73
2022/09/21 05:24:41;;;;;;;4.28;1.57;;;;;;;9.49;100.00;98928.77;1695469;83;21212;-73
2022/09/21 05:27:28;;;;;;;1.98;1.60;;;;;;;9.50;100.00;98927.01;1717863;80;21054;-72
2022/09/21 05:29:56;;;;;;;1.55;1.45;;;;;;;9.53;100.00;98928.17;1708995;81;21088;-75
2022/09/21 05:32:46;;;;;;;10.80;2.15;;;;;;;9.57;100.00;98931.02;1731448;82;21539;-74
2022/09/21 05:36:10;;;;;;;1.55;1.45;;;;;;;9.57;100.00;98938.36;1718203;81;21064;-74
2022/09/21 05:38:39;;;;;;;1.52;1.37;;;;;;;9.58;100.00;98937.90;1722565;81;21390;-73
2022/09/21 05:41:08;;;;;;;2.80;2.02;;;;;;;9.61;100.00;98946.81;1736870;82;21416;-73
2022/09/21 05:43:37;;;;;;;1.77;1.40;;;;;;;9.62;100.00;98935.06;1730880;81;21562;-74
2022/09/21 05:49:21;;;;;;;1.55;1.45;;;;;;;9.73;100.00;98934.59;1722443;82;21067;-74
2022/09/21 05:52:18;;;;;;;3.33;1.92;;;;;;;9.81;100.00;98942.00;1701636;82;21161;-74
2022/09/21 05:55:20;;;;;;;1.42;1.32;;;;;;;9.88;100.00;98932.56;1688158;83;21217;-73
2022/09/21 05:58:30;;;;;;;2.47;1.70;;;;;;;10.01;100.00;98936.25;1645021;83;21195;-73
2022/09/21 06:01:21;;;;;;;2.37;1.95;;;;;;;10.12;100.00;98930.56;1698291;82;21154;-74
2022/09/21 06:03:49;;;;;;;2.05;1.80;;;;;;;10.18;100.00;98939.83;1691478;83;21715;-73
2022/09/21 06:06:19;;;;;;;2.58;1.80;;;;;;;10.20;100.00;98941.90;1697854;84;21205;-74
2022/09/21 06:08:59;;;;;;;2.55;1.32;;;;;;;10.26;100.00;98948.95;1708272;81;21112;-73
2022/09/21 06:11:27;;;;;;;2.77;1.98;;;;;;;10.31;100.00;98948.28;1691317;82;21194;-73
2022/09/21 06:13:54;;;;;;;3.83;1.95;;;;;;;10.31;100.00;98948.28;1705412;82;21203;-73
2022/09/21 06:16:24;;;;;;;4.15;2.00;;;;;;;10.32;100.00;98955.62;1680626;84;21105;-73
2022/09/21 06:18:51;;;;;;;2.77;2.10;;;;;;;10.34;100.00;98949.89;1692930;82;22055;-73
2022/09/21 06:21:18;;;;;;;2.85;2.10;;;;;;;10.37;100.00;98956.25;1689267;80;21544;-72
2022/09/21 06:23:45;;;;;;;5.05;2.80;;;;;;;10.36;100.00;98955.86;1693675;83;21027;-73
2022/09/21 06:26:12;;;;;;;3.42;2.70;;;;;;;10.34;100.00;98957.23;1675078;83;21021;-73
2022/09/21 06:28:38;;;;;;;2.45;2.10;;;;;;;10.33;100.00;98959.45;1678428;82;21070;-72
2022/09/21 06:31:05;;;;;;;3.08;2.25;;;;;;;10.32;100.00;98970.75;1671782;83;21791;-73
2022/09/21 06:33:34;;;;;;;3.52;2.72;;;;;;;10.33;100.00;98966.41;1686743;83;21089;-73
2022/09/21 06:36:01;;;;;;;2.98;2.30;;;;;;;10.35;100.00;98972.37;1688874;83;21039;-74
2022/09/21 06:38:28;;;;;;;2.98;2.20;;;;;;;10.39;100.00;98971.31;1686791;83;21197;-73
2022/09/21 06:41:03;;;;;;;2.15;1.95;;;;;;;10.41;100.00;98964.70;1665540;82;21079;-72
2022/09/21 06:43:31;;;;;;;5.22;2.12;;;;;;;10.40;100.00;98976.02;1710056;82;21142;-73
2022/09/21 06:46:00;;;;;;;1.87;1.62;;;;;;;10.41;100.00;98975.11;1709607;81;21069;-73
2022/09/21 06:48:27;;;;;;;2.80;2.20;;;;;;;10.41;100.00;98975.11;1705269;81;21186;-73
2022/09/21 06:50:59;;;;;;;5.30;2.55;;;;;;;10.40;100.00;98975.56;1672687;81;21033;-73
2022/09/21 06:53:27;;;;;;;1.90;1.67;;;;;;;10.41;100.00;98981.61;1716680;82;21111;-72
2022/09/21 06:55:56;;;;;;;1.50;1.40;;;;;;;10.40;100.00;98987.72;1721920;81;21125;-73
2022/09/21 06:58:23;;;;;;;2.20;2.00;;;;;;;10.36;100.00;98988.35;1701427;82;21006;-73
2022/09/21 07:00:59;;;;;;;2.40;2.20;;;;;;;10.34;100.00;98988.42;1724463;82;21695;-74
2022/09/21 07:03:28;;;;;;;2.35;2.15;;;;;;;10.37;100.00;98989.20;1702870;82;21027;-72
2022/09/21 07:05:56;;;;;;;3.42;2.40;;;;;;;10.41;100.00;98995.45;1699029;82;21084;-73
2022/09/21 07:08:23;;;;;;;2.10;1.82;;;;;;;10.44;100.00;98992.70;1689778;83;21247;-73
2022/09/21 07:10:50;;;;;;;1.72;1.62;;;;;;;10.46;100.00;99003.03;1697259;82;21160;-73
2022/09/21 07:13:16;;;;;;;2.72;1.85;;;;;;;10.46;100.00;99001.27;1685599;82;21068;-74
2022/09/21 07:15:43;;;;;;;4.65;2.25;;;;;;;10.42;100.00;99001.49;1686110;81;21019;-74
2022/09/21 07:18:11;;;;;;;2.72;1.57;;;;;;;10.37;100.00;99000.89;1693874;82;21053;-73
2022/09/21 07:20:42;;;;;;;3.40;1.60;;;;;;;10.30;100.00;99006.38;1667655;83;21879;-74
2022/09/21 07:23:17;;;;;;;2.65;2.10;;;;;;;10.32;100.00;99005.00;1691136;83;21101;-74
2022/09/21 07:25:45;;;;;;;2.40;2.20;;;;;;;10.33;100.00;99007.99;1695632;83;21084;-72
2022/09/21 07:28:12;;;;;;;2.30;2.10;;;;;;;10.34;100.00;99009.22;1689992;83;21096;-73
2022/09/21 07:30:40;;;;;;;2.80;2.02;;;;;;;10.33;100.00;99008.83;1687936;82;21006;-73
2022/09/21 07:33:07;;;;;;;2.85;1.72;;;;;;;10.32;100.00;99007.61;1714963;82;21838;-74
2022/09/21 07:35:52;;;;;;;4.03;3.27;;;;;;;10.30;100.00;99015.47;1693845;80;21020;-74
2022/09/21 07:38:18;;;;;;;4.92;4.20;;;;;;;10.26;100.00;99017.83;1667781;84;21075;-74
2022/09/21 07:40:53;;;;;;;4.92;4.35;;;;;;;10.27;100.00;99014.31;1673978;83;21018;-72
2022/09/21 07:43:20;;;;;;;3.62;2.67;;;;;;;10.28;100.00;99013.86;1649422;85;22175;-73
2022/09/21 07:45:54;;;;;;;3.83;2.58;;;;;;;10.35;100.00;99010.91;1641691;87;21169;-72
2022/09/21 07:48:25;;;;;;;3.40;2.40;;;;;;;10.49;100.00;99006.79;1631203;87;21097;-73
2022/09/21 07:50:51;;;;;;;2.33;2.10;;;;;;;10.72;100.00;99003.07;1639027;85;21037;-72
2022/09/21 07:53:18;;;;;;;2.90;2.30;;;;;;;10.99;100.00;99010.32;1655464;85;21072;-73
2022/09/21 07:55:44;;;;;;;2.20;2.00;;;;;;;11.25;100.00;99003.80;1724851;81;21073;-73
2022/09/21 08:01:07;;;;;;;2.20;2.00;;;;;;;11.54;100.00;99007.97;1690120;83;21016;-72
2022/09/21 08:03:34;;;;;;;1.60;1.50;;;;;;;11.62;100.00;99008.38;1680723;82;21073;-73
2022/09/21 08:06:01;;;;;;;1.30;1.20;;;;;;;11.68;100.00;99002.86;1694525;81;21002;-73
2022/09/21 08:08:29;;;;;;;1.47;1.37;;;;;;;11.74;100.00;99007.28;1692628;83;21044;-75
2022/09/21 08:11:03;;;;;;;1.52;1.30;;;;;;;11.76;100.00;99005.94;1659975;83;21281;-73
2022/09/21 08:13:32;;;;;;;1.95;1.35;;;;;;;11.71;100.00;99015.27;1671288;84;21088;-73
2022/09/21 08:16:00;;;;;;;1.85;1.30;;;;;;;11.67;100.00;99012.89;1688503;81;21894;-72
2022/09/21 08:18:28;;;;;;;2.55;0.95;;;;;;;11.69;100.00;99011.05;1703317;82;21075;-72
2022/09/21 08:20:56;;;;;;;2.02;1.37;;;;;;;11.80;100.00;99019.61;1708820;82;22185;-72
2022/09/21 08:23:24;;;;;;;1.35;1.20;;;;;;;11.87;100.00;99016.61;1715284;81;21311;-71
2022/09/21 08:26:01;;;;;;;4.12;2.10;;;;;;;11.96;100.00;99017.89;1651089;84;21074;-72
2022/09/21 08:28:30;;;;;;;1.65;1.20;;;;;;;12.03;100.00;99022.67;1671145;84;21078;-74
2022/09/21 08:31:01;;;;;;;1.10;1.00;;;;;;;12.14;99.85;99015.58;1679040;84;21011;-74
2022/09/21 08:33:34;;;;;;;1.95;1.40;;;;;;;12.16;99.01;99018.95;1687559;82;21061;-73
2022/09/21 08:36:03;;;;;;;1.80;1.47;;;;;;;12.16;98.48;99025.47;1703158;83;21174;-72
2022/09/21 08:38:33;;;;;;;2.83;2.02;;;;;;;12.10;98.74;99024.95;1688941;83;21029;-73
2022/09/21 08:41:01;;;;;;;1.85;1.40;;;;;;;12.08;98.48;99033.70;1692089;82;21879;-73
2022/09/21 08:43:35;;;;;;;2.02;1.27;;;;;;;12.14;98.14;99038.20;1693170;83;21341;-72
2022/09/21 08:46:08;;;;;;;1.32;1.17;;;;;;;12.16;96.56;99031.14;1688720;82;21112;-72
2022/09/21 08:48:39;;;;;;;0.90;0.90;;;;;;;12.18;96.10;99034.52;1682605;81;21216;-72
2022/09/21 08:51:09;;;;;;;0.70;0.70;;;;;;;12.20;95.83;99032.63;1645479;86;21230;-72
2022/09/21 08:53:43;;;;;;;1.95;1.00;;;;;;;12.19;95.65;99037.00;1648132;85;21001;-72
2022/09/21 08:56:13;;;;;;;1.25;0.78;;;;;;;12.15;95.19;99041.19;1637368;86;21093;-73
2022/09/21 08:58:40;;;;;;;0.72;0.72;;;;;;;12.05;95.04;99042.98;1640095;86;21092;-74
2022/09/21 09:01:40;;;;;;;1.25;1.05;;;;;;;12.01;95.64;99045.83;1635866;86;21848;-71
2022/09/21 09:04:36;;;;;;;2.02;1.00;;;;;;;12.00;96.80;99041.54;1622246;87;21026;-74
2022/09/21 09:08:02;;;;;;;1.98;0.98;;;;;;;12.04;96.53;99045.20;1563858;89;21203;-73
2022/09/21 09:10:52;;;;;;;1.87;0.80;;;;;;;12.07;94.62;99050.72;1566686;90;21117;-73
2022/09/21 09:13:55;;;;;;;5.33;2.80;;;;;;;12.02;93.85;99047.52;1574906;89;21275;-73
2022/09/21 09:16:47;;;;;;;1.85;1.42;;;;;;;12.04;93.45;99048.27;1585560;89;21589;-72
2022/09/21 09:19:47;;;;;;;6.43;2.17;;;;;;;12.07;93.92;99045.05;1587698;89;21132;-73
2022/09/21 09:22:31;;;;;;;1.87;0.98;;;;;;;12.13;93.51;99045.19;1652292;83;21091;-73
2022/09/21 09:25:21;;;;;;;3.40;1.90;;;;;;;12.20;92.33;99047.81;1696561;82;21108;-72
2022/09/21 09:27:55;;;;;;;2.20;1.25;;;;;;;12.27;93.54;99050.47;1676649;82;21183;-72
2022/09/21 09:30:25;;;;;;;;;;;;;;;12.46;93.30;99052.91;1663888;83;22027;-72
2022/09/21 09:33:03;;;;;;;2.20;0.90;;;;;;;12.62;92.89;99045.05;1687232;83;20258;-72
2022/09/21 09:35:47;;;;;;;3.33;1.65;;;;;;;12.69;92.17;99047.70;1704978;80;21348;-73
2022/09/21 09:45:20;;;;;;;1.95;1.10;;;;;;;12.69;89.85;99051.62;1688590;82;21170;-74
2022/09/21 09:48:21;;;;;;;10.38;2.22;;;;;;;12.47;89.17;99048.06;1659721;82;21682;-72
2022/09/21 09:50:49;;;;;;;2.72;1.37;;;;;;;12.31;90.02;99044.17;1710097;82;21177;-70
2022/09/21 09:53:24;;;;;;;3.20;1.00;;;;;;;12.11;90.55;99054.84;1653252;82;21487;-73
2022/09/21 09:56:09;;;;;;;1.70;1.10;;;;;;;11.99;91.79;99050.31;1670893;83;21162;-72
2022/09/21 09:58:52;;;;;;;2.47;1.05;;;;;;;11.98;92.47;99057.75;1673823;83;22368;-72
2022/09/21 10:01:49;;;;;;;;;;;;;;;11.96;92.84;99058.29;1685563;83;21036;-68
2022/09/21 10:04:23;;;;;;;1.47;0.60;;;;;;;11.91;92.34;99064.20;1699639;82;20234;-71
2022/09/21 10:06:50;;;;;;;0.95;0.75;;;;;;;11.71;92.53;99073.03;1703626;81;21027;-73
2022/09/21 10:09:30;;;;;;;1.37;1.27;;;;;;;11.51;92.66;99077.98;1698426;82;21077;-71
2022/09/21 10:12:26;;;;;;;4.58;3.08;;;;;;;11.33;94.49;99081.06;1687511;82;21340;-72
2022/09/21 10:15:03;;;;;;;6.15;3.90;;;;;;;11.18;96.03;99080.54;1712542;82;21215;-73
2022/09/21 10:17:30;;;;;;;1.52;1.00;;;;;;;11.04;98.02;99085.56;1677545;82;21616;-72
2022/09/21 10:20:00;;;;;;;1.47;0.70;;;;;;;10.97;98.67;99088.11;1637254;86;21074;-74
2022/09/21 10:22:29;;;;;;;1.65;0.90;;;;;;;10.90;99.72;99091.45;1638533;84;21197;-73
2022/09/21 10:25:07;;;;;;;;;;;;;;;;;;;;;
2022/09/21 10:27:34;;;;;;;1.77;1.10;;;;;;;10.89;100.00;99080.66;1672518;84;21170;-72
2022/09/21 10:30:01;;;;;;;1.40;1.30;;;;;;;10.91;100.00;99080.13;1672707;84;21232;-72
2022/09/21 10:32:28;;;;;;;2.65;1.57;;;;;;;11.02;100.00;99076.98;1647763;84;21073;-73
2022/09/21 10:35:03;;;;;;;7.00;2.25;;;;;;;11.13;100.00;99072.11;1687475;83;22391;-75
2022/09/21 10:37:40;;;;;;;3.70;2.22;;;;;;;11.23;100.00;99073.32;1662231;85;21784;-71
2022/09/21 10:40:24;;;;;;;5.30;1.90;;;;;;;11.37;100.00;99077.85;1660453;83;21998;-71
2022/09/21 10:42:54;;;;;;;2.27;1.40;;;;;;;11.55;100.00;99081.27;1689478;84;21054;-72
2022/09/21 10:45:29;;;;;;;2.72;1.92;;;;;;;11.72;100.00;99078.17;1659103;84;21145;-71
2022/09/21 10:48:00;;;;;;;4.72;1.80;;;;;;;11.85;100.00;99073.64;1658751;84;21068;-70
2022/09/21 10:50:44;;;;;;;4.70;1.42;;;;;;;11.94;99.25;99080.52;1645589;85;21762;-73
2022/09/21 10:58:36;;;;;;;1.45;1.35;;;;;;;12.25;98.01;99069.27;1685740;83;21044;-73
2022/09/21 11:01:22;;;;;;;1.62;1.40;;;;;;;12.47;96.80;99083.28;1673758;83;21085;-73
2022/09/21 11:04:02;;;;;;;1.20;1.10;;;;;;;12.64;95.83;99074.51;1651321;85;21179;-73
2022/09/21 11:06:41;;;;;;;1.50;1.30;;;;;;;12.73;93.89;99073.55;1646278;83;21057;-72
2022/09/21 11:09:39;;;;;;;2.35;1.57;;;;;;;12.83;93.44;99073.84;1637150;84;21074;-71
2022/09/21 11:12:21;;;;;;;2.17;1.25;;;;;;;12.89;92.64;99069.59;1658291;84;21177;-72
2022/09/21 11:15:13;;;;;;;2.60;1.35;;;;;;;12.96;92.75;99071.40;1662516;84;21326;-72
2022/09/21 11:18:03;;;;;;;5.35;1.65;;;;;;;12.97;90.42;99076.53;1654109;85;21343;-74
2022/09/21 11:21:04;;;;;;;1.40;1.20;;;;;;;12.98;91.07;99078.68;1667792;84;21810;-73
2022/09/21 11:24:10;;;;;;;11.40;3.02;;;;;;;13.01;89.00;99070.19;1676751;84;21108;-72
2022/09/21 11:26:47;;;;;;;3.22;2.10;;;;;;;13.04;89.36;99067.86;1670185;85;22299;-72
2022/09/21 11:30:01;;;;;;;7.50;2.75;;;;;;;13.08;88.54;99073.29;1663145;84;21014;-72
2022/09/21 11:32:46;;;;;;;6.03;1.65;;;;;;;13.09;88.33;99074.97;1662385;84;22010;-73
2022/09/21 11:35:33;;;;;;;1.72;1.40;;;;;;;13.11;87.88;99075.27;1673286;83;21097;-72
2022/09/21 11:38:30;;;;;;;2.35;1.50;;;;;;;13.07;87.02;99071.14;1599233;88;21508;-70
2022/09/21 11:41:39;;;;;;;1.07;1.07;;;;;;;13.02;88.55;99077.09;1589107;89;21081;-72
2022/09/21 11:44:32;;;;;;;3.90;1.55;;;;;;;12.96;89.56;99073.55;1697701;82;21166;-75
2022/09/21 11:47:13;;;;;;;1.45;1.35;;;;;;;12.83;91.16;99078.23;1702080;83;21163;-72
2022/09/21 11:50:16;;;;;;;2.33;1.70;;;;;;;12.72;91.27;99077.08;1699279;82;21115;-72
2022/09/21 11:53:07;;;;;;;1.45;1.25;;;;;;;12.63;92.71;99081.50;1701382;82;21097;-73
2022/09/21 11:55:43;;;;;;;1.45;1.35;;;;;;;12.63;92.71;99081.50;1625484;84;21034;-73
2022/09/21 11:58:21;;;;;;;2.05;1.70;;;;;;;12.62;91.41;99073.28;1684805;81;21017;-72
2022/09/21 12:01:11;;;;;;;3.50;2.00;;;;;;;12.61;91.96;99083.81;1685105;83;21338;-73
2022/09/21 12:04:20;;;;;;;3.65;1.77;;;;;;;12.61;92.69;99070.30;1663651;83;21427;-72
2022/09/21 12:07:15;;;;;;;2.10;1.90;;;;;;;12.61;92.69;99070.30;1626826;86;21048;-72
2022/09/21 12:09:47;;;;;;;3.22;1.62;;;;;;;12.73;92.86;99078.77;1631603;86;21205;-73
2022/09/21 12:12:49;;;;;;;1.50;1.40;;;;;;;12.82;91.33;99070.86;1634961;85;21030;-70
2022/09/21 12:15:38;;;;;;;1.60;1.50;;;;;;;12.87;90.35;99077.97;1655339;84;22136;-71
2022/09/21 12:18:26;;;;;;;2.85;1.60;;;;;;;12.89;89.31;99074.81;1665139;83;21550;-70
2022/09/21 12:21:18;;;;;;;3.45;1.50;;;;;;;12.94;89.12;99073.25;1662561;84;21069;-71
2022/09/21 12:23:54;;;;;;;2.12;1.75;;;;;;;13.03;89.84;99069.63;1628248;86;21790;-72
2022/09/21 12:26:28;;;;;;;3.22;2.20;;;;;;;13.29;89.27;99059.02;1636915;87;21065;-71
2022/09/21 12:32:38;;;;;;;3.12;2.17;;;;;;;13.17;85.63;99057.60;1618496;86;21054;-69
2022/09/21 12:35:07;;;;;;;2.52;2.30;;;;;;;13.17;85.63;99057.60;1637974;84;21125;-71
2022/09/21 12:37:42;;;;;;;6.00;2.40;;;;;;;13.04;84.40;99053.50;1621255;85;21066;-72
2022/09/21 12:40:46;;;;;;;6.37;2.50;;;;;;;12.96;84.71;99060.49;1648806;84;21095;-72
2022/09/21 12:43:40;;;;;;;2.30;1.90;;;;;;;12.97;85.15;99056.11;1682079;83;21979;-71
2022/09/21 12:46:34;;;;;;;2.30;2.10;;;;;;;12.98;84.25;99050.81;1699199;82;21010;-71
2022/09/21 12:49:02;;;;;;;2.15;2.02;;;;;;;12.98;84.25;99050.81;1738286;82;21505;-71
2022/09/21 12:51:39;;;;;;;3.22;2.15;;;;;;;12.94;84.16;99054.52;1703260;81;22271;-72
2022/09/21 12:54:18;;;;;;;3.22;1.95;;;;;;;12.91;84.12;99055.16;1693452;83;21097;-72
2022/09/21 12:57:06;;;;;;;6.40;2.05;;;;;;;12.88;84.70;99051.41;1684621;81;21272;-71
2022/09/21 12:59:48;;;;;;;1.75;1.65;;;;;;;12.87;85.08;99050.56;1687921;82;21117;-72
2022/09/21 13:02:42;;;;;;;5.97;1.93;;;;;;;12.88;84.38;99048.34;1697043;81;21622;-72
2022/09/21 13:05:16;;;;;;;3.08;2.05;;;;;;;12.78;84.56;99050.27;1705410;81;21048;-71
2022/09/21 13:08:03;;;;;;;5.28;2.33;;;;;;;12.67;85.70;99050.39;1688687;82;21039;-72
2022/09/21 13:10:58;;;;;;;5.28;2.27;;;;;;;12.59;85.96;99053.89;1690392;82;21183;-71
2022/09/21 13:13:32;;;;;;;3.55;2.37;;;;;;;12.52;86.91;99052.58;1692512;84;20992;-72
2022/09/21 13:16:00;;;;;;;5.40;2.20;;;;;;;12.46;87.43;99052.91;1694707;82;21151;-72
2022/09/21 13:18:37;;;;;;;3.30;2.30;;;;;;;12.42;87.56;99060.05;1700367;81;21570;-72
2022/09/21 13:21:17;;;;;;;2.50;2.30;;;;;;;12.40;88.01;99059.75;1707559;83;21105;-72
2022/09/21 13:23:57;;;;;;;13.62;3.80;;;;;;;12.43;87.27;99056.98;1708121;83;21849;-71
2022/09/21 13:26:38;;;;;;;2.50;2.30;;;;;;;12.49;87.90;99062.33;1659069;84;21117;-71
2022/09/21 13:29:22;;;;;;;3.77;2.62;;;;;;;12.59;87.60;99065.63;1693278;82;21027;-72
2022/09/21 13:31:58;;;;;;;2.60;2.40;;;;;;;12.62;87.17;99067.23;1678455;82;21056;-73
2022/09/21 13:34:37;;;;;;;3.45;2.50;;;;;;;12.58;86.47;99066.59;1688421;81;21643;-74
2022/09/21 13:37:22;;;;;;;2.50;2.30;;;;;;;12.54;86.16;99058.55;1708616;82;21264;-73
2022/09/21 13:40:03;;;;;;;4.37;3.27;;;;;;;12.53;85.82;99062.55;1692371;82;21046;-73
2022/09/21 13:42:37;;;;;;;2.98;2.67;;;;;;;12.55;86.40;99058.08;1681432;82;21018;-73
2022/09/21 13:45:20;;;;;;;2.83;2.60;;;;;;;12.60;85.67;99051.66;1691903;82;21003;-72
2022/09/21 13:47:57;;;;;;;;;;;;;;;12.67;85.11;99056.92;1695022;83;21088;-71
2022/09/21 13:50:41;;;;;;;3.02;2.50;;;;;;;12.71;85.03;99050.61;1700315;83;21147;-70
2022/09/21 13:53:21;;;;;;;3.42;2.37;;;;;;;12.73;84.01;99046.61;1705309;83;21127;-71
2022/09/21 13:55:54;;;;;;;6.97;2.65;;;;;;;12.76;82.21;99042.53;1707132;82;21037;-72
2022/09/21 13:58:32;;;;;;;5.72;3.10;;;;;;;12.78;82.31;99051.11;1714887;80;21124;-71
2022/09/21 14:01:06;;;;;;;3.52;3.00;;;;;;;12.76;83.36;99046.44;1695258;83;21058;-71
2022/09/21 14:03:38;;;;;;;5.90;3.40;;;;;;;12.78;84.03;99051.11;1704532;83;21274;-71
2022/09/21 14:06:17;;;;;;;5.42;3.60;;;;;;;12.81;84.21;99050.06;1709581;82;21113;-70
2022/09/21 14:08:58;;;;;;;2.62;2.40;;;;;;;12.81;84.58;99046.99;1676287;83;21070;-73
2022/09/21 14:11:33;;;;;;;4.85;2.60;;;;;;;12.85;84.77;99056.80;1698636;82;21067;-73
2022/09/21 14:14:12;;;;;;;4.95;2.72;;;;;;;12.84;84.51;99052.50;1705602;82;21002;-73
2022/09/21 14:16:56;;;;;;;4.42;3.60;;;;;;;12.80;84.70;99058.82;1691160;83;21323;-73
2022/09/21 14:19:29;;;;;;;3.77;2.60;;;;;;;12.76;85.69;99054.27;1677199;83;21006;-74
2022/09/21 14:22:11;;;;;;;6.62;3.20;;;;;;;12.73;85.74;99054.44;1673204;84;21028;-74
2022/09/21 14:24:51;;;;;;;4.58;2.90;;;;;;;12.71;86.11;99049.77;1695759;83;21576;-73
2022/09/21 14:27:43;;;;;;;4.67;3.02;;;;;;;12.67;86.08;99055.62;1706658;83;21222;-73
2022/09/21 14:30:20;;;;;;;8.33;2.95;;;;;;;12.59;86.66;99055.69;1708943;83;21162;-73
2022/09/21 14:33:05;;;;;;;4.45;3.80;;;;;;;12.48;87.18;99053.66;1704056;83;21015;-73
2022/09/21 14:35:39;;;;;;;4.05;3.45;;;;;;;12.40;88.13;99051.93;1710106;83;21014;-73
2022/09/21 14:38:49;;;;;;;4.20;3.80;;;;;;;12.32;88.63;99052.84;1715738;83;20989;-73
2022/09/21 14:41:19;;;;;;;6.55;3.72;;;;;;;12.26;89.03;99050.09;1718851;82;21094;-73
2022/09/21 14:43:52;;;;;;;6.25;3.70;;;;;;;12.20;89.41;99051.72;1715629;82;21134;-73
2022/09/21 14:46:39;;;;;;;5.17;3.60;;;;;;;12.16;89.87;99053.30;1699719;82;21084;-74
2022/09/21 14:49:29;;;;;;;7.05;4.20;;;;;;;12.13;90.45;99052.16;1712197;82;21101;-74
2022/09/21 14:52:37;;;;;;;6.35;4.60;;;;;;;12.09;90.74;99051.48;1671712;83;21057;-74
2022/09/21 14:55:51;;;;;;;5.08;4.15;;;;;;;12.06;91.68;99049.88;1706653;83;21573;-72
2022/09/21 14:58:35;;;;;;;4.70;4.20;;;;;;;12.05;92.14;99049.95;1553746;91;21294;-74
2022/09/21 15:01:35;;;;;;;8.08;4.70;;;;;;;12.03;92.45;99053.95;1603885;88;21037;-73
2022/09/21 15:04:27;;;;;;;8.73;5.50;;;;;;;11.99;92.64;99060.24;1692398;83;21162;-72
2022/09/21 15:13:23;;;;;;;10.35;7.05;;;;;;;11.95;94.20;99063.13;1697900;82;48516;-72
2022/09/21 15:16:24;;;;;;;13.83;8.33;;;;;;;11.95;95.52;99069.63;1706856;83;21126;-73
2022/09/21 15:19:16;;;;;;;11.20;8.10;;;;;;;11.95;95.68;99067.88;1711189;83;20986;-72
2022/09/21 15:21:54;;;;;;;10.35;7.33;;;;;;;11.94;95.94;99076.61;1721998;83;20962;-73
2022/09/21 15:24:31;;;;;;;11.63;6.90;;;;;;;11.89;96.34;99073.40;1697552;83;20998;-73
2022/09/21 15:27:10;;;;;;;18.70;9.35;;;;;;;11.87;97.10;99070.48;1709015;83;21231;-73
2022/09/21 15:29:37;;;;;;;10.05;8.95;;;;;;;11.82;98.02;99070.73;1690559;83;21454;-72
2022/09/21 15:32:06;;;;;;;9.80;8.53;;;;;;;11.80;98.54;99071.73;1706007;83;21026;-73
2022/09/21 15:34:41;;;;;;;11.28;8.60;;;;;;;11.78;98.89;99074.44;1713885;83;20981;-73